Terminal Aerodrome Forecast
Issued by NWS

Home | Current Version | Previous Version | Text Only | Print | Product List | Glossary On
Versions: 1 2 3 4 5 6 7 8 9 10 11 12 13 14 15 16 17
000
FTUS43 KBIS 230100 AAA
TAFDIK
TAF AMD
KDIK 230122Z 2301/2324 32018KT 3SM -SN FEW009 OVC035
     FM230600 34015G25KT 2SM -SN OVC008
     FM231200 34016G25KT 4SM BR OVC007=

USA.gov is the U.S. government's official web portal to all federal, state and local government web resources and services.